createdAt,value
2022-09-27T00:02:03.375Z,19.50
2022-09-27T00:04:31.836Z,19.50
2022-09-27T00:07:00.234Z,19.40
2022-09-27T00:09:28.706Z,19.40
2022-09-27T00:11:57.122Z,19.30
2022-09-27T00:14:25.623Z,19.40
2022-09-27T00:16:55.459Z,19.40
2022-09-27T00:19:25.718Z,19.40
2022-09-27T00:21:54.105Z,19.40
2022-09-27T00:24:23.788Z,19.30
2022-09-27T00:26:52.236Z,19.30
2022-09-27T00:29:21.108Z,19.30
2022-09-27T00:31:49.573Z,19.30
2022-09-27T00:34:20.938Z,19.30
2022-09-27T00:36:49.792Z,19.30
2022-09-27T00:39:18.405Z,19.30
2022-09-27T00:41:47.012Z,19.30
2022-09-27T00:44:33.972Z,19.30
2022-09-27T00:47:04.486Z,19.40
2022-09-27T00:49:35.766Z,19.40
2022-09-27T00:52:06.443Z,19.40
2022-09-27T00:54:36.072Z,19.50
2022-09-27T00:57:04.664Z,19.50
2022-09-27T00:59:35.632Z,19.50
2022-09-27T01:02:05.624Z,19.50
2022-09-27T01:04:37.045Z,19.50
2022-09-27T01:07:05.457Z,19.50
2022-09-27T01:09:35.028Z,19.40
2022-09-27T01:12:12.009Z,19.40
2022-09-27T01:14:44.242Z,19.40
2022-09-27T01:17:19.600Z,19.30
2022-09-27T01:20:09.048Z,19.40
2022-09-27T01:22:40.346Z,19.40
2022-09-27T01:25:16.185Z,19.40
2022-09-27T01:28:05.257Z,19.40
2022-09-27T01:30:39.700Z,19.40
2022-09-27T01:33:11.737Z,19.30
2022-09-27T01:35:45.565Z,19.30
2022-09-27T01:38:16.750Z,19.30
2022-09-27T01:40:50.266Z,19.20
2022-09-27T01:43:21.542Z,19.20
2022-09-27T01:45:54.624Z,19.20
2022-09-27T01:48:23.943Z,19.20
2022-09-27T01:50:54.460Z,19.10
2022-09-27T01:53:25.270Z,19.20
2022-09-27T01:55:55.364Z,19.10
2022-09-27T01:58:25.508Z,19.20
2022-09-27T02:00:55.924Z,19.20
2022-09-27T02:03:25.921Z,19.20
2022-09-27T02:05:55.602Z,19.20
2022-09-27T02:08:27.994Z,19.20
2022-09-27T02:10:58.024Z,19.30
2022-09-27T02:13:30.814Z,19.30
2022-09-27T02:16:05.083Z,19.30
2022-09-27T02:18:35.889Z,19.40
2022-09-27T02:21:06.529Z,19.40
2022-09-27T02:23:37.912Z,19.40
2022-09-27T02:26:10.847Z,19.40
2022-09-27T02:28:42.130Z,19.40
2022-09-27T02:31:12.492Z,19.40
2022-09-27T02:33:43.497Z,19.40
2022-09-27T02:36:12.205Z,19.40
2022-09-27T02:38:41.063Z,19.40
2022-09-27T02:41:14.302Z,19.40
2022-09-27T02:43:44.354Z,19.40
2022-09-27T02:46:21.699Z,19.40
2022-09-27T02:48:57.513Z,19.40
2022-09-27T02:51:30.937Z,19.40
2022-09-27T02:54:04.271Z,19.40
2022-09-27T02:56:36.494Z,19.40
2022-09-27T02:59:08.604Z,19.40
2022-09-27T03:01:42.659Z,19.40
2022-09-27T03:04:14.780Z,19.40
2022-09-27T03:06:45.288Z,19.50
2022-09-27T03:09:15.810Z,19.40
2022-09-27T03:11:44.328Z,19.30
2022-09-27T03:14:12.833Z,19.30
2022-09-27T03:16:42.698Z,19.30
2022-09-27T03:19:11.341Z,19.20
2022-09-27T03:21:40.062Z,19.20
2022-09-27T03:24:08.482Z,19.10
2022-09-27T03:26:36.909Z,19.10
2022-09-27T03:29:05.283Z,19.10
2022-09-27T03:31:33.762Z,19.20
2022-09-27T03:34:03.728Z,19.20
2022-09-27T03:36:32.187Z,19.20
2022-09-27T03:39:00.636Z,19.30
2022-09-27T03:41:29.614Z,19.30
2022-09-27T03:43:59.826Z,19.30
2022-09-27T03:46:28.497Z,19.40
2022-09-27T03:48:56.983Z,19.30
2022-09-27T03:51:26.753Z,19.20
2022-09-27T03:53:55.227Z,19.20
2022-09-27T03:56:23.833Z,19.20
2022-09-27T03:58:52.180Z,19.10
2022-09-27T04:01:20.952Z,19.10
2022-09-27T04:03:50.036Z,19.10
2022-09-27T04:06:19.123Z,19.10
2022-09-27T04:08:48.946Z,19.10
2022-09-27T04:11:17.640Z,19.10
2022-09-27T04:13:48.868Z,19.10
2022-09-27T04:16:17.423Z,19.10
2022-09-27T04:18:46.756Z,19.20
2022-09-27T04:21:15.383Z,19.20
2022-09-27T04:23:43.765Z,19.30
2022-09-27T04:26:13.799Z,19.30
2022-09-27T04:28:42.185Z,19.40
2022-09-27T04:31:10.653Z,19.40
2022-09-27T04:33:39.003Z,19.40
2022-09-27T04:36:24.970Z,19.30
2022-09-27T04:38:53.474Z,19.30
2022-09-27T04:41:23.447Z,19.30
2022-09-27T04:43:55.443Z,19.30
2022-09-27T04:46:31.662Z,19.30
2022-09-27T04:49:00.457Z,19.30
2022-09-27T04:51:28.939Z,19.40
2022-09-27T04:53:57.685Z,19.40
2022-09-27T04:56:27.471Z,19.40
2022-09-27T04:58:55.878Z,19.40
2022-09-27T05:01:24.353Z,19.50
2022-09-27T05:03:52.797Z,19.40
2022-09-27T05:06:21.195Z,19.50
2022-09-27T05:08:49.581Z,19.50
2022-09-27T05:11:17.904Z,19.50
2022-09-27T05:13:47.744Z,19.40
2022-09-27T05:16:16.135Z,19.40
2022-09-27T05:18:44.583Z,19.40
2022-09-27T05:21:13.426Z,19.40
2022-09-27T05:23:44.703Z,19.40
2022-09-27T05:26:15.675Z,19.40
2022-09-27T05:28:44.445Z,19.40
2022-09-27T05:31:14.516Z,19.40
2022-09-27T05:33:43.063Z,19.40
2022-09-27T05:36:12.203Z,19.30
2022-09-27T05:38:41.924Z,19.30
2022-09-27T05:41:10.432Z,19.30
2022-09-27T05:43:38.859Z,19.30
2022-09-27T05:46:07.381Z,19.30
2022-09-27T05:48:38.417Z,19.30
2022-09-27T05:51:07.097Z,19.40
2022-09-27T05:53:35.808Z,19.40
2022-09-27T05:56:04.601Z,19.40
2022-09-27T05:58:33.010Z,19.40
2022-09-27T06:01:01.601Z,19.40
2022-09-27T06:03:29.946Z,19.50
2022-09-27T06:06:03.840Z,19.50
2022-09-27T06:08:34.448Z,19.50
2022-09-27T06:11:04.450Z,19.50
2022-09-27T06:13:33.512Z,19.50
2022-09-27T06:16:02.146Z,19.50
2022-09-27T06:18:30.689Z,19.60
2022-09-27T06:21:01.657Z,19.60
2022-09-27T06:23:32.778Z,19.70
2022-09-27T06:26:02.945Z,19.70
2022-09-27T06:28:31.585Z,19.70
2022-09-27T06:31:01.281Z,19.70
2022-09-27T06:33:29.803Z,19.80
2022-09-27T06:35:58.186Z,19.80
2022-09-27T06:38:28.017Z,19.90
2022-09-27T06:40:58.350Z,19.90
2022-09-27T06:43:27.819Z,19.90
2022-09-27T06:45:56.500Z,20.00
2022-09-27T06:48:25.028Z,20.00
2022-09-27T06:50:58.051Z,20.10
2022-09-27T06:53:30.132Z,20.10
2022-09-27T06:55:59.391Z,20.20
2022-09-27T06:58:45.953Z,20.20
2022-09-27T07:01:14.732Z,20.30
2022-09-27T07:03:44.304Z,20.40
2022-09-27T07:06:17.164Z,20.40
2022-09-27T07:08:50.457Z,20.50
2022-09-27T07:11:19.672Z,20.50
2022-09-27T07:13:47.986Z,20.50
2022-09-27T07:16:16.402Z,20.60
2022-09-27T07:18:44.915Z,20.70
2022-09-27T07:21:13.791Z,20.70
2022-09-27T07:23:42.140Z,20.80
2022-09-27T07:26:12.809Z,20.90
2022-09-27T07:28:41.766Z,20.90
2022-09-27T07:31:10.538Z,21.00
2022-09-27T07:33:43.299Z,21.00
2022-09-27T07:36:12.784Z,21.10
2022-09-27T07:38:41.368Z,21.30
2022-09-27T07:41:13.276Z,21.40
2022-09-27T07:43:41.670Z,21.60
2022-09-27T07:46:11.279Z,21.70
2022-09-27T07:48:39.764Z,21.90
2022-09-27T07:51:10.964Z,22.10
2022-09-27T07:53:40.760Z,22.30
2022-09-27T07:56:09.745Z,22.50
2022-09-27T07:58:40.421Z,22.70
2022-09-27T08:01:08.875Z,22.80
2022-09-27T08:03:38.017Z,22.90
2022-09-27T08:06:06.541Z,23.00
2022-09-27T08:08:34.914Z,23.20
2022-09-27T08:11:03.440Z,23.30
2022-09-27T08:13:31.807Z,23.40
2022-09-27T08:16:04.426Z,23.50
2022-09-27T08:18:32.889Z,23.50
2022-09-27T08:21:01.757Z,23.50
2022-09-27T08:23:30.447Z,23.60
2022-09-27T08:25:59.410Z,23.60
2022-09-27T08:28:28.387Z,23.60
2022-09-27T08:30:59.324Z,23.70
2022-09-27T08:33:32.918Z,23.70
2022-09-27T08:36:03.608Z,23.70
2022-09-27T08:38:32.100Z,23.80
2022-09-27T08:41:03.064Z,23.80
2022-09-27T08:43:36.734Z,23.90
2022-09-27T08:46:09.254Z,23.90
2022-09-27T08:48:40.224Z,24.00
2022-09-27T08:51:12.067Z,23.90
2022-09-27T08:53:42.798Z,23.90
2022-09-27T08:56:12.328Z,23.90
2022-09-27T08:58:42.825Z,24.00
2022-09-27T09:01:13.483Z,24.00
2022-09-27T09:03:45.521Z,24.00
2022-09-27T09:06:18.462Z,24.10
2022-09-27T09:08:54.384Z,24.00
2022-09-27T09:11:44.879Z,24.00
2022-09-27T09:14:30.938Z,24.00
2022-09-27T09:17:04.122Z,24.00
2022-09-27T09:19:40.657Z,24.00
2022-09-27T09:22:19.554Z,24.00
2022-09-27T09:24:56.192Z,24.00
2022-09-27T09:27:29.895Z,24.00
2022-09-27T09:30:05.483Z,24.10
2022-09-27T09:32:39.426Z,24.10
2022-09-27T09:35:13.514Z,24.10
2022-09-27T09:37:44.113Z,24.10
2022-09-27T09:40:19.002Z,24.10
2022-09-27T09:42:51.213Z,24.10
2022-09-27T09:45:21.440Z,24.10
2022-09-27T09:47:52.817Z,24.10
2022-09-27T09:50:27.001Z,24.10
2022-09-27T09:52:59.699Z,24.20
2022-09-27T09:55:30.309Z,24.20
2022-09-27T09:58:03.507Z,24.30
2022-09-27T10:00:34.178Z,24.20
2022-09-27T10:03:04.522Z,24.20
2022-09-27T10:05:34.444Z,24.20
2022-09-27T10:08:04.942Z,24.30
2022-09-27T10:10:33.369Z,24.40
2022-09-27T10:13:03.574Z,24.40
2022-09-27T10:15:32.553Z,24.50
2022-09-27T10:18:01.086Z,24.50
2022-09-27T10:20:32.557Z,24.50
2022-09-27T10:23:06.028Z,24.50
2022-09-27T10:25:47.477Z,24.60
2022-09-27T10:28:33.063Z,24.60
2022-09-27T10:31:06.202Z,24.60
2022-09-27T10:33:35.694Z,24.70
2022-09-27T10:36:04.186Z,24.70
2022-09-27T10:38:34.537Z,24.80
2022-09-27T10:41:17.971Z,24.80
2022-09-27T10:43:46.316Z,24.90
2022-09-27T10:46:17.346Z,25.00
2022-09-27T10:48:45.710Z,25.00
2022-09-27T10:51:23.746Z,25.00
2022-09-27T10:53:54.042Z,25.10
2022-09-27T10:56:27.897Z,25.10
2022-09-27T10:58:58.148Z,25.20
2022-09-27T11:01:27.061Z,25.20
2022-09-27T11:03:56.384Z,25.20
2022-09-27T11:06:29.848Z,25.30
2022-09-27T11:09:10.661Z,25.40
2022-09-27T11:11:39.015Z,25.50
2022-09-27T11:14:12.926Z,25.40
2022-09-27T11:16:46.072Z,25.50
2022-09-27T11:19:25.845Z,25.50
2022-09-27T11:21:59.266Z,25.50
2022-09-27T11:24:41.700Z,25.60
2022-09-27T11:27:18.171Z,25.60
2022-09-27T11:29:50.814Z,25.70
2022-09-27T11:32:23.931Z,25.70
2022-09-27T11:34:59.833Z,25.70
2022-09-27T11:37:33.239Z,25.70
2022-09-27T11:40:14.223Z,25.70
2022-09-27T11:42:55.674Z,25.80
2022-09-27T11:45:41.075Z,25.80
2022-09-27T11:48:22.366Z,25.90
2022-09-27T11:51:00.977Z,25.90
2022-09-27T11:53:45.683Z,25.90
2022-09-27T11:56:22.082Z,26.00
2022-09-27T11:58:56.120Z,26.00
2022-09-27T12:01:29.742Z,25.90
2022-09-27T12:04:03.398Z,25.90
2022-09-27T12:06:36.263Z,25.90
2022-09-27T12:09:06.420Z,25.90
2022-09-27T12:11:38.786Z,26.00
2022-09-27T12:14:09.995Z,26.00
2022-09-27T12:16:40.480Z,26.00
2022-09-27T12:19:13.791Z,26.10
2022-09-27T12:21:43.176Z,26.10
2022-09-27T12:24:16.879Z,26.10
2022-09-27T12:26:47.329Z,26.10
2022-09-27T12:29:18.574Z,26.20
2022-09-27T12:31:48.485Z,26.10
2022-09-27T12:34:20.117Z,26.10
2022-09-27T12:36:50.392Z,26.00
2022-09-27T12:39:21.499Z,26.00
2022-09-27T12:41:56.558Z,26.10
2022-09-27T12:44:24.964Z,26.10
2022-09-27T12:47:00.679Z,26.20
2022-09-27T12:49:34.453Z,26.20
2022-09-27T12:52:04.910Z,26.30
2022-09-27T12:54:39.614Z,26.20
2022-09-27T12:57:18.158Z,26.10
2022-09-27T12:59:53.882Z,26.20
2022-09-27T13:02:57.345Z,26.20
2022-09-27T13:05:43.678Z,26.10
2022-09-27T13:08:20.451Z,26.00
2022-09-27T13:10:55.731Z,26.00
2022-09-27T13:13:27.434Z,25.90
2022-09-27T13:15:58.133Z,25.90
2022-09-27T13:18:47.345Z,25.80
2022-09-27T13:21:35.769Z,25.80
2022-09-27T13:24:04.525Z,25.70
2022-09-27T13:26:49.480Z,25.70
2022-09-27T13:29:38.691Z,25.70
2022-09-27T13:32:22.624Z,25.70
2022-09-27T13:34:54.004Z,25.70
2022-09-27T13:37:40.128Z,25.60
2022-09-27T13:40:36.252Z,25.50
2022-09-27T13:43:13.266Z,25.50
2022-09-27T13:45:43.135Z,25.70
2022-09-27T13:48:15.586Z,25.70
2022-09-27T13:50:49.767Z,25.60
2022-09-27T13:53:23.711Z,25.50
2022-09-27T13:55:52.644Z,25.50
2022-09-27T13:58:31.106Z,25.40
2022-09-27T14:01:00.752Z,25.30
2022-09-27T14:03:30.575Z,25.20
2022-09-27T14:06:06.601Z,25.00
2022-09-27T14:08:38.455Z,25.00
2022-09-27T14:11:15.208Z,25.00
2022-09-27T14:13:44.862Z,24.90
2022-09-27T14:16:16.440Z,24.90
2022-09-27T14:18:50.747Z,24.80
2022-09-27T14:21:29.365Z,24.80
2022-09-27T14:24:30.041Z,24.80
2022-09-27T14:27:14.260Z,24.80
2022-09-27T14:29:46.466Z,24.80
2022-09-27T14:32:17.759Z,24.80
2022-09-27T14:34:47.228Z,24.70
2022-09-27T14:37:24.079Z,24.60
2022-09-27T14:39:56.871Z,24.60
2022-09-27T14:42:26.610Z,24.60
2022-09-27T14:44:57.130Z,24.60
2022-09-27T14:47:27.784Z,24.50
2022-09-27T14:49:57.180Z,24.50
2022-09-27T14:52:45.575Z,24.50
2022-09-27T14:55:16.151Z,24.50
2022-09-27T14:57:48.059Z,24.50
2022-09-27T15:00:18.525Z,24.50
2022-09-27T15:02:46.958Z,24.40
2022-09-27T15:05:16.242Z,24.30
2022-09-27T15:07:46.421Z,24.20
2022-09-27T15:10:17.106Z,24.10
2022-09-27T15:12:48.237Z,24.00
2022-09-27T15:15:17.739Z,24.00
2022-09-27T15:17:46.734Z,24.00
2022-09-27T15:20:23.210Z,24.00
2022-09-27T15:22:53.454Z,24.00
2022-09-27T15:25:24.685Z,24.00
2022-09-27T15:27:54.446Z,24.00
2022-09-27T15:30:29.882Z,24.00
2022-09-27T15:32:59.005Z,24.00
2022-09-27T15:35:30.077Z,24.00
2022-09-27T15:38:13.457Z,24.00
2022-09-27T15:40:56.790Z,24.00
2022-09-27T15:43:30.227Z,23.90
2022-09-27T15:46:02.152Z,23.90
2022-09-27T15:48:32.173Z,23.90
2022-09-27T15:51:01.224Z,23.90
2022-09-27T15:53:44.062Z,23.90
2022-09-27T15:56:14.481Z,23.80
2022-09-27T15:58:43.527Z,23.70
2022-09-27T16:01:21.353Z,23.60
2022-09-27T16:03:50.408Z,23.50
2022-09-27T16:06:19.554Z,23.50
2022-09-27T16:08:49.267Z,23.50
2022-09-27T16:11:18.363Z,23.40
2022-09-27T16:13:46.724Z,23.40
2022-09-27T16:16:17.200Z,23.30
2022-09-27T16:18:46.007Z,23.20
2022-09-27T16:21:14.536Z,23.20
2022-09-27T16:23:42.894Z,23.20
2022-09-27T16:26:12.785Z,23.20
2022-09-27T16:28:41.219Z,23.10
2022-09-27T16:31:11.453Z,23.10
2022-09-27T16:33:39.918Z,23.10
2022-09-27T16:36:14.413Z,23.10
2022-09-27T16:38:43.001Z,23.10
2022-09-27T16:41:12.723Z,23.00
2022-09-27T16:43:41.691Z,22.90
2022-09-27T16:46:11.867Z,22.90
2022-09-27T16:48:40.421Z,22.90
2022-09-27T16:51:29.709Z,22.80
2022-09-27T16:53:58.134Z,22.80
2022-09-27T16:56:28.566Z,22.70
2022-09-27T16:58:57.003Z,22.70
2022-09-27T17:01:25.377Z,22.60
2022-09-27T17:03:57.400Z,22.50
2022-09-27T17:06:26.056Z,22.50
2022-09-27T17:08:54.482Z,22.40
2022-09-27T17:11:23.077Z,22.40
2022-09-27T17:13:56.598Z,22.30
2022-09-27T17:16:25.521Z,22.30
2022-09-27T17:18:53.909Z,22.30
2022-09-27T17:21:22.428Z,22.20
2022-09-27T17:23:50.789Z,22.20
2022-09-27T17:26:20.533Z,22.20
2022-09-27T17:28:49.959Z,22.30
2022-09-27T17:31:20.037Z,22.30
2022-09-27T17:33:50.483Z,22.30
2022-09-27T17:36:22.717Z,22.30
2022-09-27T17:38:51.874Z,22.20
2022-09-27T17:41:21.494Z,22.20
2022-09-27T17:43:53.071Z,22.10
2022-09-27T17:46:23.691Z,22.00
2022-09-27T17:49:15.344Z,22.00
2022-09-27T17:51:44.544Z,22.00
2022-09-27T17:54:12.937Z,21.90
2022-09-27T17:56:42.314Z,21.90
2022-09-27T17:59:11.234Z,21.80
2022-09-27T18:01:41.137Z,21.70
2022-09-27T18:04:10.687Z,21.70
2022-09-27T18:06:40.443Z,21.70
2022-09-27T18:09:10.095Z,21.60
2022-09-27T18:11:39.247Z,21.60
2022-09-27T18:14:07.755Z,21.50
2022-09-27T18:16:37.050Z,21.50
2022-09-27T18:19:07.971Z,21.50
2022-09-27T18:21:36.350Z,21.40
2022-09-27T18:24:06.427Z,21.40
2022-09-27T18:26:36.628Z,21.40
2022-09-27T18:29:05.741Z,21.50
2022-09-27T18:31:34.286Z,21.50
2022-09-27T18:34:04.084Z,21.50
2022-09-27T18:36:33.928Z,21.50
2022-09-27T18:39:03.017Z,21.50
2022-09-27T18:41:32.803Z,21.50
2022-09-27T18:44:02.304Z,21.50
2022-09-27T18:46:36.281Z,21.60
2022-09-27T18:49:05.731Z,21.60
2022-09-27T18:51:37.683Z,21.50
2022-09-27T18:54:07.691Z,21.50
2022-09-27T18:56:39.518Z,21.50
2022-09-27T18:59:09.632Z,21.50
2022-09-27T19:01:39.912Z,21.40
2022-09-27T19:06:56.718Z,21.40
2022-09-27T19:09:26.359Z,21.50
2022-09-27T19:11:54.799Z,21.40
2022-09-27T19:14:23.795Z,21.40
2022-09-27T19:16:52.234Z,21.40
2022-09-27T19:19:20.903Z,21.40
2022-09-27T19:21:49.703Z,21.40
2022-09-27T19:24:19.840Z,21.40
2022-09-27T19:26:48.387Z,21.40
2022-09-27T19:29:16.973Z,21.40
2022-09-27T19:31:45.511Z,21.30
2022-09-27T19:34:13.912Z,21.40
2022-09-27T19:36:42.342Z,21.40
2022-09-27T19:39:10.732Z,21.40
2022-09-27T19:41:40.549Z,21.40
2022-09-27T19:44:08.973Z,21.50
2022-09-27T19:46:37.615Z,21.60
2022-09-27T19:49:06.398Z,21.70
2022-09-27T19:51:34.817Z,21.70
2022-09-27T19:54:04.227Z,21.70
2022-09-27T19:56:32.565Z,21.70
2022-09-27T19:59:06.848Z,21.70
2022-09-27T20:01:35.917Z,21.70
2022-09-27T20:04:04.491Z,21.80
2022-09-27T20:06:33.237Z,21.60
2022-09-27T20:09:03.104Z,21.50
2022-09-27T20:11:33.239Z,21.40
2022-09-27T20:14:03.084Z,21.30
2022-09-27T20:16:32.200Z,21.40
2022-09-27T20:19:01.077Z,21.30
2022-09-27T20:21:30.147Z,21.40
2022-09-27T20:23:58.682Z,21.40
2022-09-27T20:26:27.926Z,21.40
2022-09-27T20:28:57.231Z,21.50
2022-09-27T20:31:27.496Z,21.40
2022-09-27T20:33:56.067Z,21.30
2022-09-27T20:36:26.184Z,21.30
2022-09-27T20:38:59.551Z,21.30
2022-09-27T20:41:31.217Z,21.30
2022-09-27T20:44:00.590Z,21.20
2022-09-27T20:46:30.502Z,21.20
2022-09-27T20:48:59.919Z,21.20
2022-09-27T20:51:28.831Z,21.20
2022-09-27T20:53:57.300Z,21.20
2022-09-27T20:56:26.718Z,21.20
2022-09-27T20:58:56.473Z,21.20
2022-09-27T21:01:25.608Z,21.10
2022-09-27T21:03:56.235Z,21.00
2022-09-27T21:06:24.696Z,21.00
2022-09-27T21:08:53.118Z,20.90
2022-09-27T21:11:21.745Z,20.80
2022-09-27T21:13:50.877Z,20.80
2022-09-27T21:16:20.815Z,20.70
2022-09-27T21:18:49.646Z,20.80
2022-09-27T21:21:19.956Z,20.80
2022-09-27T21:23:48.707Z,20.70
2022-09-27T21:26:17.961Z,20.70
2022-09-27T21:28:47.197Z,20.80
2022-09-27T21:31:21.584Z,20.70
2022-09-27T21:33:53.572Z,20.80
2022-09-27T21:36:24.319Z,20.80
2022-09-27T21:38:52.806Z,20.80
2022-09-27T21:41:21.203Z,20.80
2022-09-27T21:43:49.987Z,20.80
2022-09-27T21:46:19.470Z,20.70
2022-09-27T21:48:48.704Z,20.70
2022-09-27T21:51:17.938Z,20.80
2022-09-27T21:53:50.425Z,20.70
2022-09-27T21:56:19.374Z,20.80
2022-09-27T21:58:48.000Z,20.80
2022-09-27T22:01:18.583Z,20.80
2022-09-27T22:03:48.046Z,20.80
2022-09-27T22:06:17.165Z,20.80
2022-09-27T22:08:46.200Z,20.80
2022-09-27T22:11:16.627Z,20.80
2022-09-27T22:13:45.063Z,20.80
2022-09-27T22:16:14.730Z,20.80
2022-09-27T22:18:44.867Z,20.70
2022-09-27T22:21:14.265Z,20.70
2022-09-27T22:23:43.052Z,20.70
2022-09-27T22:26:12.629Z,20.70
2022-09-27T22:28:43.005Z,20.70
2022-09-27T22:31:12.051Z,20.60
2022-09-27T22:33:40.516Z,20.60
2022-09-27T22:36:09.036Z,20.60
2022-09-27T22:38:37.385Z,20.60
2022-09-27T22:41:05.773Z,20.60
2022-09-27T22:43:34.159Z,20.60
2022-09-27T22:46:03.936Z,20.60
2022-09-27T22:48:32.684Z,20.50
2022-09-27T22:51:01.381Z,20.50
2022-09-27T22:53:30.168Z,20.40
2022-09-27T22:56:03.742Z,20.40
2022-09-27T22:58:33.000Z,20.50
2022-09-27T23:01:07.591Z,20.40
2022-09-27T23:03:37.636Z,20.40
2022-09-27T23:06:07.462Z,20.40
2022-09-27T23:08:36.364Z,20.40
2022-09-27T23:11:05.973Z,20.40
2022-09-27T23:13:35.058Z,20.40
2022-09-27T23:16:04.207Z,20.40
2022-09-27T23:18:33.374Z,20.40
2022-09-27T23:21:03.977Z,20.30
2022-09-27T23:23:32.643Z,20.20
2022-09-27T23:26:01.889Z,20.10
2022-09-27T23:28:31.119Z,20.10
2022-09-27T23:31:05.327Z,20.10
2022-09-27T23:33:34.093Z,20.00
2022-09-27T23:36:04.269Z,20.00
2022-09-27T23:38:32.899Z,20.10
2022-09-27T23:41:01.971Z,20.10
2022-09-27T23:43:30.506Z,20.10
2022-09-27T23:45:58.935Z,20.10
2022-09-27T23:48:27.775Z,20.10
2022-09-27T23:50:56.813Z,20.10
2022-09-27T23:53:26.725Z,20.00
2022-09-27T23:56:02.778Z,20.10
2022-09-27T23:58:33.221Z,20.00
